Terminal Aerodrome Forecast
Issued by NWS

Home | Current Version | Previous Version | Text Only | Print | Product List | Glossary On
Versions: 1 2 3 4 5 6 7 8 9 10 11 12 13 14 15 16 17 18 19 20
000
FTUS42 KTBW 241000 AAB
TAFLAL
TAF AMD
KLAL 241008Z 2410/2506 VRB02KT 3SM BR BKN004
     FM241300 16005KT P6SM SCT035
     FM242100 28009KT P6SM SCT040
     FM250200 VRB04KT P6SM FEW045
      AMD NOT SKED TIL 241200=

USA.gov is the U.S. government's official web portal to all federal, state and local government web resources and services.